createdAt,value
2019-04-27T00:03:06.984Z,82.16
2019-04-27T00:08:19.989Z,82.62
2019-04-27T00:13:23.008Z,82.98
2019-04-27T00:18:35.948Z,82.72
2019-04-27T00:23:40.249Z,84.63
2019-04-27T00:28:43.440Z,85.10
2019-04-27T00:33:46.723Z,85.34
2019-04-27T01:36:59.533Z,83.22
2019-04-27T02:50:55.187Z,84.44
2019-04-27T03:04:15.770Z,86.72
2019-04-27T05:57:53.299Z,88.29
2019-04-27T06:46:56.450Z,89.04
2019-04-27T06:52:00.037Z,87.73
2019-04-27T06:57:04.744Z,86.28
2019-04-27T07:02:08.714Z,82.40
2019-04-27T07:07:12.210Z,85.41
2019-04-27T07:12:15.541Z,82.86
2019-04-27T07:17:19.106Z,83.98
2019-04-27T07:22:22.704Z,85.66
2019-04-27T07:27:26.401Z,83.60
2019-04-27T07:32:29.702Z,84.74
2019-04-27T07:37:33.050Z,83.52
2019-04-27T07:42:35.762Z,82.57
2019-04-27T07:47:42.533Z,84.09
2019-04-27T07:52:45.458Z,79.90
2019-04-27T07:57:49.508Z,77.81
2019-04-27T08:02:52.489Z,76.65
2019-04-27T08:07:55.044Z,78.91
2019-04-27T08:12:59.771Z,77.83
2019-04-27T08:18:02.688Z,77.97
2019-04-27T08:23:05.955Z,75.90
2019-04-27T08:28:31.573Z,77.59
2019-04-27T08:33:35.142Z,78.90
2019-04-27T08:38:39.006Z,75.09
2019-04-27T08:43:42.529Z,76.90
2019-04-27T08:48:46.034Z,76.50
2019-04-27T08:53:50.140Z,74.00
2019-04-27T08:58:53.933Z,76.12
2019-04-27T09:03:57.227Z,76.58
2019-04-27T09:09:07.136Z,74.90
2019-04-27T09:14:29.658Z,73.43
2019-04-27T09:19:56.249Z,73.54
2019-04-27T09:24:59.575Z,74.48
2019-04-27T09:30:04.167Z,72.46
2019-04-27T09:35:08.050Z,73.22
2019-04-27T09:40:11.569Z,68.53
2019-04-27T09:45:16.183Z,69.64
2019-04-27T09:50:19.643Z,68.37
2019-04-27T09:55:22.982Z,67.67
2019-04-27T10:00:27.783Z,68.64
2019-04-27T10:05:31.140Z,65.26
2019-04-27T10:10:34.620Z,64.34
2019-04-27T10:15:37.503Z,65.52
2019-04-27T10:20:41.135Z,62.51
2019-04-27T10:25:45.782Z,63.98
2019-04-27T10:30:48.764Z,64.28
2019-04-27T10:35:56.442Z,60.89
2019-04-27T10:40:59.239Z,60.07
2019-04-27T10:46:02.703Z,60.94
2019-04-27T10:51:07.351Z,60.65
2019-04-27T10:56:11.018Z,53.68
2019-04-27T11:01:15.617Z,53.30
2019-04-27T11:06:38.183Z,53.53
2019-04-27T11:11:41.557Z,53.69
2019-04-27T11:16:45.772Z,51.83
2019-04-27T11:21:49.462Z,52.21
2019-04-27T11:26:52.697Z,50.88
2019-04-27T11:31:55.965Z,50.94
2019-04-27T11:37:05.565Z,50.21
2019-04-27T11:42:08.475Z,49.41
2019-04-27T11:47:11.526Z,49.62
2019-04-27T11:52:15.760Z,47.99
2019-04-27T11:57:19.098Z,47.33
2019-04-27T12:02:22.434Z,45.04
2019-04-27T12:07:26.058Z,45.43
2019-04-27T12:12:29.074Z,45.57
2019-04-27T12:17:32.038Z,47.15
2019-04-27T12:22:35.207Z,49.55
2019-04-27T12:28:02.865Z,49.73
2019-04-27T12:33:05.492Z,46.91
2019-04-27T12:38:08.652Z,47.75
2019-04-27T12:43:11.468Z,47.88
2019-04-27T12:48:13.628Z,43.43
2019-04-27T12:53:26.696Z,45.22
2019-04-27T12:58:44.091Z,48.31
2019-04-27T13:03:46.929Z,47.60
2019-04-27T13:08:50.562Z,46.72
2019-04-27T13:13:57.203Z,44.78
2019-04-27T13:18:58.811Z,42.94
2019-04-27T13:24:04.550Z,41.54
2019-04-27T13:29:07.195Z,42.23
2019-04-27T13:34:10.399Z,44.76
2019-04-27T13:39:15.734Z,46.35
2019-04-27T13:44:19.105Z,47.04
2019-04-27T13:49:53.633Z,44.78
2019-04-27T13:54:56.919Z,45.30
2019-04-27T14:00:01.211Z,42.66
2019-04-27T14:05:05.579Z,40.19
2019-04-27T14:10:09.395Z,42.70
2019-04-27T14:15:12.841Z,40.82
2019-04-27T14:20:15.726Z,40.79
2019-04-27T14:25:18.341Z,40.34
2019-04-27T14:30:21.230Z,38.35
2019-04-27T14:35:24.849Z,41.21
2019-04-27T14:40:28.828Z,44.01
2019-04-27T14:45:32.196Z,48.05
2019-04-27T14:50:35.722Z,53.90
2019-04-27T14:55:38.760Z,55.96
2019-04-27T15:00:42.214Z,59.40
2019-04-27T15:05:45.410Z,62.46
2019-04-27T15:10:50.095Z,63.14
2019-04-27T15:15:52.709Z,64.20
2019-04-27T15:20:58.449Z,64.53
2019-04-27T15:26:00.497Z,63.61
2019-04-27T15:31:26.366Z,63.92
2019-04-27T15:36:45.255Z,63.17
2019-04-27T15:41:52.093Z,63.59
2019-04-27T15:46:55.638Z,65.76
2019-04-27T15:52:00.177Z,67.63
2019-04-27T15:57:05.704Z,67.89
2019-04-27T16:02:15.105Z,69.07
2019-04-27T16:07:18.154Z,68.39
2019-04-27T16:12:20.096Z,69.05
2019-04-27T16:17:23.707Z,70.94
2019-04-27T16:22:26.906Z,72.01
2019-04-27T16:27:34.153Z,71.56
2019-04-27T16:32:36.209Z,71.90
2019-04-27T16:37:58.082Z,73.73
2019-04-27T16:43:03.275Z,72.89
2019-04-27T16:48:06.295Z,73.43
2019-04-27T16:53:12.409Z,72.92
2019-04-27T16:58:15.944Z,72.79
2019-04-27T17:03:20.400Z,73.25
2019-04-27T17:08:26.571Z,74.48
2019-04-27T17:13:30.645Z,74.49
2019-04-27T17:18:39.418Z,75.39
2019-04-27T17:23:42.663Z,75.30
2019-04-27T17:28:53.366Z,75.29
2019-04-27T17:34:01.226Z,74.56
2019-04-27T17:39:08.339Z,74.62
2019-04-27T17:44:12.667Z,75.16
2019-04-27T17:49:15.524Z,75.19
2019-04-27T17:54:18.496Z,74.94
2019-04-27T17:59:23.128Z,75.34
2019-04-27T18:04:26.027Z,76.25
2019-04-27T18:09:29.072Z,76.95
2019-04-27T18:14:32.768Z,76.79
2019-04-27T18:19:44.227Z,76.11
2019-04-27T18:25:06.227Z,75.99
2019-04-27T18:30:28.878Z,76.50
2019-04-27T18:35:33.985Z,77.59
2019-04-27T18:40:40.101Z,78.75
2019-04-27T18:45:45.030Z,79.30
2019-04-27T18:51:05.239Z,79.52
2019-04-27T18:56:10.406Z,80.25
2019-04-27T19:01:13.937Z,80.32
2019-04-27T19:06:18.743Z,79.78
2019-04-27T19:11:22.562Z,79.46
2019-04-27T19:16:26.267Z,79.12
2019-04-27T19:21:29.587Z,79.09
2019-04-27T19:26:55.174Z,78.86
2019-04-27T19:32:00.309Z,79.19
2019-04-27T19:37:03.241Z,79.42
2019-04-27T19:42:06.224Z,80.38
2019-04-27T19:47:10.455Z,80.77
2019-04-27T19:52:13.880Z,80.50
2019-04-27T19:57:31.155Z,80.05
2019-04-27T20:02:22.766Z,81.36
2019-04-27T20:07:28.422Z,81.03
2019-04-27T20:12:34.517Z,80.40
2019-04-27T20:17:37.867Z,80.96
2019-04-27T20:22:43.494Z,80.94
2019-04-27T20:27:49.527Z,81.22
2019-04-27T20:32:52.071Z,80.78
2019-04-27T20:37:55.382Z,80.11
2019-04-27T20:42:58.690Z,79.53
2019-04-27T20:48:01.968Z,79.75
2019-04-27T20:53:08.362Z,79.80
2019-04-27T20:58:12.747Z,79.09
2019-04-27T21:03:34.961Z,78.94
2019-04-27T21:08:41.145Z,81.61
2019-04-27T21:13:44.456Z,80.94
2019-04-27T21:18:47.689Z,80.07
2019-04-27T21:23:51.540Z,80.20
2019-04-27T21:28:55.247Z,81.34
2019-04-27T21:33:58.636Z,81.85
2019-04-27T21:39:01.854Z,81.88
2019-04-27T21:44:06.279Z,82.32
2019-04-27T21:49:11.189Z,82.62
2019-04-27T21:54:21.098Z,83.25
2019-04-27T21:59:24.523Z,83.01
2019-04-27T22:04:28.041Z,83.40
2019-04-27T22:09:31.062Z,84.05
2019-04-27T22:14:34.704Z,84.65
2019-04-27T22:19:37.903Z,84.86
2019-04-27T22:24:42.876Z,84.82
2019-04-27T22:29:46.135Z,84.31
2019-04-27T22:34:49.871Z,85.15
2019-04-27T22:40:11.988Z,85.12
2019-04-27T22:45:22.199Z,84.90
2019-04-27T22:50:25.825Z,85.28
2019-04-27T22:55:28.802Z,84.69
2019-04-27T23:00:51.269Z,85.86
2019-04-27T23:05:55.101Z,85.20
2019-04-27T23:10:58.556Z,86.54
2019-04-27T23:16:03.198Z,87.25
2019-04-27T23:21:06.368Z,86.41
2019-04-27T23:26:11.966Z,87.03
2019-04-27T23:31:31.892Z,87.04
2019-04-27T23:36:35.261Z,87.86
2019-04-27T23:41:39.468Z,87.59
2019-04-27T23:46:42.774Z,86.19
2019-04-27T23:51:53.837Z,87.17
2019-04-27T23:56:56.863Z,87.33
